createdAt,value
2018-08-16T00:00:23.869Z,74.29
2018-08-16T00:02:53.149Z,74.55
2018-08-16T00:05:21.915Z,73.94
2018-08-16T00:07:50.772Z,74.11
2018-08-16T00:10:20.013Z,74.31
2018-08-16T00:12:49.862Z,73.60
2018-08-16T00:15:20.035Z,72.93
2018-08-16T00:17:48.875Z,72.38
2018-08-16T00:20:17.776Z,72.04
2018-08-16T00:22:47.245Z,72.07
2018-08-16T00:25:16.741Z,72.56
2018-08-16T00:27:45.655Z,73.49
2018-08-16T00:30:17.901Z,73.75
2018-08-16T00:32:47.241Z,74.65
2018-08-16T00:35:16.181Z,74.58
2018-08-16T00:37:45.231Z,73.59
2018-08-16T00:40:17.565Z,73.33
2018-08-16T00:42:46.360Z,72.86
2018-08-16T00:45:15.576Z,73.29
2018-08-16T00:47:44.636Z,72.99
2018-08-16T00:50:15.006Z,72.49
2018-08-16T00:52:43.831Z,72.04
2018-08-16T00:55:14.220Z,71.99
2018-08-16T00:57:43.515Z,71.83
2018-08-16T01:00:17.922Z,72.79
2018-08-16T01:02:47.188Z,72.33
2018-08-16T01:05:16.034Z,72.67
2018-08-16T01:07:44.821Z,73.18
2018-08-16T01:10:14.669Z,73.37
2018-08-16T01:12:44.328Z,73.93
2018-08-16T01:15:16.243Z,74.17
2018-08-16T01:17:45.072Z,73.74
2018-08-16T01:20:13.933Z,73.85
2018-08-16T01:22:43.036Z,73.30
2018-08-16T01:25:12.608Z,72.76
2018-08-16T01:27:41.503Z,72.82
2018-08-16T01:30:11.238Z,73.55
2018-08-16T01:32:40.063Z,73.75
2018-08-16T01:35:09.948Z,73.78
2018-08-16T01:37:39.212Z,73.42
2018-08-16T01:40:09.233Z,72.62
2018-08-16T01:42:38.849Z,72.97
2018-08-16T01:45:08.145Z,73.06
2018-08-16T01:47:36.964Z,73.09
2018-08-16T01:50:07.620Z,73.90
2018-08-16T01:52:36.340Z,73.04
2018-08-16T01:55:05.931Z,72.41
2018-08-16T01:57:35.178Z,73.12
2018-08-16T02:00:05.630Z,72.87
2018-08-16T02:02:34.440Z,73.30
2018-08-16T02:05:03.806Z,73.78
2018-08-16T02:07:32.654Z,74.65
2018-08-16T02:10:01.640Z,74.72
2018-08-16T02:12:30.410Z,74.26
2018-08-16T02:14:59.242Z,73.79
2018-08-16T02:17:28.527Z,74.30
2018-08-16T02:19:57.291Z,74.10
2018-08-16T02:22:25.982Z,73.84
2018-08-16T02:24:54.867Z,73.99
2018-08-16T02:27:23.669Z,73.74
2018-08-16T02:29:52.455Z,74.57
2018-08-16T02:32:21.608Z,74.90
2018-08-16T02:34:50.607Z,75.08
2018-08-16T02:37:19.726Z,74.22
2018-08-16T02:39:49.151Z,74.78
2018-08-16T02:42:17.847Z,74.12
2018-08-16T02:44:46.662Z,74.04
2018-08-16T02:47:15.678Z,73.84
2018-08-16T02:49:44.355Z,73.21
2018-08-16T02:52:13.010Z,73.51
2018-08-16T02:54:42.460Z,74.67
2018-08-16T02:57:11.405Z,74.96
2018-08-16T02:59:40.226Z,75.18
2018-08-16T03:02:09.268Z,75.07
2018-08-16T03:04:37.980Z,74.58
2018-08-16T03:07:07.295Z,73.36
2018-08-16T03:09:35.959Z,72.95
2018-08-16T03:12:04.907Z,73.35
2018-08-16T03:14:34.330Z,74.52
2018-08-16T03:17:03.245Z,74.17
2018-08-16T03:19:31.979Z,73.86
2018-08-16T03:22:00.803Z,74.92
2018-08-16T03:24:29.859Z,75.09
2018-08-16T03:26:58.672Z,74.36
2018-08-16T03:29:27.637Z,74.27
2018-08-16T03:31:56.505Z,73.36
2018-08-16T03:34:25.226Z,73.24
2018-08-16T03:36:54.386Z,73.08
2018-08-16T03:39:23.672Z,73.50
2018-08-16T03:41:58.147Z,73.06
2018-08-16T03:44:27.698Z,73.37
2018-08-16T03:46:56.478Z,73.26
2018-08-16T03:49:25.222Z,73.68
2018-08-16T03:51:53.977Z,74.12
2018-08-16T03:54:23.119Z,74.17
2018-08-16T03:56:51.972Z,74.52
2018-08-16T03:59:21.273Z,74.72
2018-08-16T04:01:50.078Z,75.01
2018-08-16T04:04:19.334Z,74.35
2018-08-16T04:06:48.378Z,75.14
2018-08-16T04:09:17.560Z,74.92
2018-08-16T04:11:46.700Z,74.91
2018-08-16T04:14:16.086Z,76.22
2018-08-16T04:16:44.822Z,77.34
2018-08-16T04:19:13.485Z,76.67
2018-08-16T04:21:42.672Z,77.19
2018-08-16T04:24:11.547Z,76.61
2018-08-16T04:26:40.511Z,76.25
2018-08-16T04:29:10.227Z,75.43
2018-08-16T04:31:39.105Z,75.20
2018-08-16T04:34:08.074Z,74.44
2018-08-16T04:36:37.319Z,74.36
2018-08-16T04:39:08.242Z,75.00
2018-08-16T04:41:37.949Z,74.96
2018-08-16T04:44:06.733Z,74.33
2018-08-16T04:46:35.520Z,73.28
2018-08-16T04:49:04.698Z,72.94
2018-08-16T04:51:33.465Z,72.46
2018-08-16T04:54:02.203Z,72.13
2018-08-16T04:56:31.295Z,71.47
2018-08-16T04:59:00.009Z,71.74
2018-08-16T05:01:28.641Z,70.92
2018-08-16T05:03:57.610Z,70.87
2018-08-16T05:06:26.766Z,70.69
2018-08-16T05:08:55.539Z,69.62
2018-08-16T05:11:24.817Z,68.85
2018-08-16T05:13:53.443Z,68.22
2018-08-16T05:16:22.529Z,67.84
2018-08-16T05:18:51.603Z,66.03
2018-08-16T05:21:20.231Z,64.95
2018-08-16T05:23:49.359Z,64.91
2018-08-16T05:26:18.840Z,64.01
2018-08-16T05:28:47.887Z,63.83
2018-08-16T05:31:16.643Z,63.07
2018-08-16T05:33:45.598Z,62.15
2018-08-16T05:36:14.792Z,61.48
2018-08-16T05:38:43.585Z,61.22
2018-08-16T05:41:12.882Z,60.55
2018-08-16T05:43:41.911Z,59.88
2018-08-16T05:46:10.527Z,59.42
2018-08-16T05:48:39.245Z,58.51
2018-08-16T05:51:08.247Z,57.66
2018-08-16T05:53:37.301Z,56.48
2018-08-16T05:56:06.287Z,56.68
2018-08-16T05:58:35.127Z,56.95
2018-08-16T06:01:04.319Z,56.08
2018-08-16T06:03:33.407Z,55.10
2018-08-16T06:06:02.365Z,54.27
2018-08-16T06:08:31.133Z,54.63
2018-08-16T06:10:59.991Z,54.52
2018-08-16T06:13:29.192Z,53.61
2018-08-16T06:15:57.979Z,54.22
2018-08-16T06:18:26.917Z,54.16
2018-08-16T06:20:55.907Z,53.13
2018-08-16T06:23:24.957Z,52.33
2018-08-16T06:25:53.775Z,51.47
2018-08-16T06:28:22.896Z,52.33
2018-08-16T06:30:52.152Z,51.94
2018-08-16T06:33:21.168Z,51.56
2018-08-16T06:35:50.377Z,51.21
2018-08-16T06:38:19.222Z,51.60
2018-08-16T06:40:47.977Z,51.55
2018-08-16T06:43:17.058Z,51.29
2018-08-16T06:45:46.152Z,51.40
2018-08-16T06:48:14.891Z,50.35
2018-08-16T06:50:43.722Z,49.00
2018-08-16T06:53:13.118Z,49.90
2018-08-16T06:55:42.076Z,50.87
2018-08-16T06:58:10.887Z,50.22
2018-08-16T07:00:40.315Z,48.91
2018-08-16T07:03:10.069Z,48.62
2018-08-16T07:05:39.232Z,49.05
2018-08-16T07:08:08.248Z,47.94
2018-08-16T07:10:37.203Z,47.95
2018-08-16T07:13:06.283Z,47.66
2018-08-16T07:15:35.095Z,47.20
2018-08-16T07:18:03.886Z,45.16
2018-08-16T07:20:32.666Z,45.31
2018-08-16T07:23:01.986Z,45.82
2018-08-16T07:25:30.818Z,45.06
2018-08-16T07:27:59.676Z,45.81
2018-08-16T07:30:28.977Z,45.26
2018-08-16T07:32:58.068Z,43.08
2018-08-16T07:35:27.333Z,43.23
2018-08-16T07:37:56.547Z,43.77
2018-08-16T07:40:25.508Z,43.30
2018-08-16T07:42:54.415Z,43.62
2018-08-16T07:45:23.142Z,44.02
2018-08-16T07:47:51.948Z,42.97
2018-08-16T07:50:20.690Z,42.65
2018-08-16T07:52:49.811Z,43.53
2018-08-16T07:55:18.660Z,42.83
2018-08-16T07:57:47.552Z,42.66
2018-08-16T08:00:18.527Z,42.16
2018-08-16T08:02:47.578Z,39.91
2018-08-16T08:05:16.484Z,40.76
2018-08-16T08:07:45.903Z,39.99
2018-08-16T08:10:14.830Z,41.40
2018-08-16T08:12:43.702Z,40.32
2018-08-16T08:15:14.226Z,39.92
2018-08-16T08:17:43.055Z,40.66
2018-08-16T08:20:13.986Z,40.19
2018-08-16T08:22:43.257Z,39.94
2018-08-16T08:25:13.512Z,40.51
2018-08-16T08:27:42.553Z,39.04
2018-08-16T08:30:14.488Z,38.92
2018-08-16T08:32:43.668Z,38.95
2018-08-16T08:35:12.809Z,39.02
2018-08-16T08:38:17.947Z,38.97
2018-08-16T08:40:46.919Z,37.45
2018-08-16T08:44:26.888Z,36.69
2018-08-16T08:46:55.603Z,37.16
2018-08-16T08:49:24.286Z,37.24
2018-08-16T08:51:54.455Z,35.78
2018-08-16T08:54:39.634Z,36.00
2018-08-16T08:57:19.948Z,35.61
2018-08-16T08:59:48.700Z,36.34
2018-08-16T09:02:17.536Z,35.31
2018-08-16T09:04:47.376Z,35.10
2018-08-16T09:07:17.408Z,33.70
2018-08-16T09:11:03.461Z,33.63
2018-08-16T09:13:43.736Z,33.74
2018-08-16T09:16:21.325Z,32.92
2018-08-16T09:18:50.611Z,32.51
2018-08-16T09:21:19.728Z,31.89
2018-08-16T09:23:48.523Z,31.00
2018-08-16T09:26:22.961Z,30.48
2018-08-16T09:28:51.935Z,30.19
2018-08-16T09:31:32.301Z,30.09
2018-08-16T09:34:21.115Z,29.38
2018-08-16T09:36:50.475Z,29.83
2018-08-16T09:39:20.003Z,28.47
2018-08-16T09:41:49.452Z,28.14
2018-08-16T09:44:18.284Z,29.23
2018-08-16T09:47:03.334Z,27.89
2018-08-16T09:49:33.598Z,26.16
2018-08-16T09:52:02.911Z,27.41
2018-08-16T09:54:31.784Z,26.05
2018-08-16T09:57:02.068Z,24.49
2018-08-16T09:59:31.191Z,23.86
2018-08-16T10:02:00.408Z,22.78
2018-08-16T10:04:29.593Z,23.53
2018-08-16T10:06:58.743Z,22.95
2018-08-16T10:09:28.908Z,22.34
2018-08-16T10:11:58.815Z,22.43
2018-08-16T10:14:27.786Z,22.63
2018-08-16T10:16:56.672Z,22.30
2018-08-16T10:19:26.115Z,22.16
2018-08-16T10:21:55.494Z,21.65
2018-08-16T10:24:24.267Z,22.39
2018-08-16T10:26:53.597Z,21.75
2018-08-16T10:29:22.602Z,21.45
2018-08-16T10:31:51.467Z,21.81
2018-08-16T10:34:20.493Z,20.95
2018-08-16T10:36:49.447Z,22.43
2018-08-16T10:39:19.139Z,21.26
2018-08-16T10:41:48.570Z,20.92
2018-08-16T10:44:17.531Z,21.02
2018-08-16T10:46:46.325Z,21.13
2018-08-16T10:49:15.312Z,22.43
2018-08-16T10:51:44.126Z,21.51
2018-08-16T10:54:12.959Z,20.60
2018-08-16T10:56:42.431Z,21.58
2018-08-16T10:59:11.733Z,20.94
2018-08-16T11:01:40.680Z,21.03
2018-08-16T11:04:09.818Z,21.53
2018-08-16T11:06:38.782Z,21.35
2018-08-16T11:09:09.422Z,21.39
2018-08-16T11:11:39.146Z,20.93
2018-08-16T11:14:08.171Z,22.30
2018-08-16T11:16:36.878Z,22.17
2018-08-16T11:19:05.995Z,22.51
2018-08-16T11:21:34.777Z,22.46
2018-08-16T11:24:03.899Z,22.03
2018-08-16T11:26:32.910Z,21.08
2018-08-16T11:29:01.894Z,20.95
2018-08-16T11:31:30.574Z,20.05
2018-08-16T11:33:59.864Z,20.52
2018-08-16T11:36:29.118Z,19.53
2018-08-16T11:38:58.178Z,19.04
2018-08-16T11:41:27.394Z,19.79
2018-08-16T11:43:57.178Z,19.76
2018-08-16T11:46:25.900Z,20.37
2018-08-16T11:48:54.850Z,19.39
2018-08-16T11:51:23.935Z,20.08
2018-08-16T11:53:52.951Z,18.56
2018-08-16T11:56:22.079Z,19.84
2018-08-16T11:58:50.996Z,20.69
2018-08-16T12:01:20.033Z,20.58
2018-08-16T12:03:49.580Z,22.22
2018-08-16T12:06:18.273Z,22.58
2018-08-16T12:08:47.387Z,21.96
2018-08-16T12:11:16.689Z,22.71
2018-08-16T12:13:45.395Z,21.86
2018-08-16T12:16:14.239Z,23.21
2018-08-16T12:18:43.019Z,23.86
2018-08-16T12:21:12.147Z,23.18
2018-08-16T12:23:41.247Z,22.45
2018-08-16T12:26:10.034Z,23.04
2018-08-16T12:28:39.051Z,23.36
2018-08-16T12:31:08.162Z,23.35
2018-08-16T12:33:37.388Z,22.95
2018-08-16T12:36:06.978Z,24.70
2018-08-16T12:38:35.921Z,23.56
2018-08-16T12:41:05.405Z,23.97
2018-08-16T12:43:36.054Z,25.16
2018-08-16T12:46:05.179Z,25.18
2018-08-16T12:48:34.202Z,25.45
2018-08-16T12:51:03.004Z,25.20
2018-08-16T12:53:32.236Z,26.24
2018-08-16T12:56:01.517Z,26.79
2018-08-16T12:58:30.381Z,26.83
2018-08-16T13:00:59.138Z,26.08
2018-08-16T13:03:28.386Z,25.93
2018-08-16T13:05:57.478Z,25.97
2018-08-16T13:08:26.701Z,25.46
2018-08-16T13:10:55.953Z,24.38
2018-08-16T13:13:24.723Z,23.82
2018-08-16T13:15:53.653Z,22.13
2018-08-16T13:18:22.401Z,21.81
2018-08-16T13:20:51.662Z,20.93
2018-08-16T13:23:20.544Z,20.66
2018-08-16T13:25:49.536Z,18.65
2018-08-16T13:28:18.630Z,18.96
2018-08-16T13:30:47.698Z,18.52
2018-08-16T13:33:16.690Z,18.20
2018-08-16T13:35:46.227Z,18.35
2018-08-16T13:38:15.120Z,17.93
2018-08-16T13:40:44.133Z,18.16
2018-08-16T13:43:13.319Z,17.74
2018-08-16T13:45:41.999Z,17.36
2018-08-16T13:48:10.759Z,17.71
2018-08-16T13:50:40.228Z,16.81
2018-08-16T13:53:09.402Z,17.15
2018-08-16T13:55:38.499Z,17.67
2018-08-16T13:58:07.910Z,18.02
2018-08-16T14:00:37.134Z,17.23
2018-08-16T14:03:06.176Z,17.77
2018-08-16T14:05:37.003Z,16.92
2018-08-16T14:08:06.130Z,16.78
2018-08-16T14:10:35.755Z,17.30
2018-08-16T14:13:04.675Z,17.02
2018-08-16T14:15:33.563Z,17.18
2018-08-16T14:18:02.863Z,16.36
2018-08-16T14:20:31.814Z,16.38
2018-08-16T14:23:00.600Z,16.42
2018-08-16T14:25:29.945Z,17.11
2018-08-16T14:27:58.912Z,17.19
2018-08-16T14:30:27.935Z,17.34
2018-08-16T14:32:57.343Z,16.95
2018-08-16T14:35:26.235Z,17.41
2018-08-16T14:37:55.115Z,17.79
2018-08-16T14:40:24.380Z,18.44
2018-08-16T14:42:53.342Z,19.19
2018-08-16T14:45:22.448Z,19.82
2018-08-16T14:47:52.011Z,19.60
2018-08-16T14:50:21.174Z,18.65
2018-08-16T14:52:50.156Z,19.53
2018-08-16T14:55:19.820Z,20.91
2018-08-16T14:57:48.580Z,22.03
2018-08-16T15:00:17.895Z,23.71
2018-08-16T15:02:46.974Z,24.63
2018-08-16T15:05:16.000Z,25.82
2018-08-16T15:07:45.053Z,25.10
2018-08-16T15:10:14.217Z,25.15
2018-08-16T15:12:42.918Z,24.81
2018-08-16T15:15:11.739Z,24.03
2018-08-16T15:17:40.867Z,23.67
2018-08-16T15:20:10.699Z,23.27
2018-08-16T15:22:39.639Z,22.06
2018-08-16T15:25:09.268Z,22.37
2018-08-16T15:27:38.093Z,21.65
2018-08-16T15:30:07.956Z,21.11
2018-08-16T15:32:37.286Z,21.17
2018-08-16T15:35:06.411Z,21.22
2018-08-16T15:37:35.381Z,19.89
2018-08-16T15:40:04.483Z,20.01
2018-08-16T15:42:33.252Z,19.49
2018-08-16T15:45:02.065Z,19.47
2018-08-16T15:47:31.534Z,19.16
2018-08-16T15:50:00.738Z,19.20
2018-08-16T15:52:29.761Z,20.25
2018-08-16T15:54:59.037Z,20.48
2018-08-16T15:57:28.180Z,20.59
2018-08-16T15:59:57.015Z,19.79
2018-08-16T16:02:25.959Z,20.15
2018-08-16T16:04:54.628Z,19.48
2018-08-16T16:07:23.505Z,19.44
2018-08-16T16:09:52.663Z,19.22
2018-08-16T16:12:21.343Z,19.77
2018-08-16T16:14:50.128Z,20.97
2018-08-16T16:17:19.181Z,21.97
2018-08-16T16:19:48.150Z,21.60
2018-08-16T16:22:17.128Z,22.15
2018-08-16T16:24:46.190Z,22.60
2018-08-16T16:27:15.167Z,22.59
2018-08-16T16:29:43.834Z,22.83
2018-08-16T16:32:12.662Z,22.90
2018-08-16T16:34:41.475Z,22.69
2018-08-16T16:37:10.188Z,22.63
2018-08-16T16:39:39.271Z,22.00
2018-08-16T16:42:08.194Z,22.33
2018-08-16T16:44:37.195Z,22.75
2018-08-16T16:47:07.331Z,22.59
2018-08-16T16:49:36.183Z,23.30
2018-08-16T16:52:05.203Z,23.97
2018-08-16T16:54:34.426Z,24.41
2018-08-16T16:57:03.589Z,24.00
2018-08-16T16:59:32.327Z,24.62
2018-08-16T17:02:01.856Z,24.81
2018-08-16T17:04:30.867Z,24.53
2018-08-16T17:06:59.646Z,24.90
2018-08-16T17:09:28.792Z,26.19
2018-08-16T17:11:57.842Z,25.72
2018-08-16T17:14:26.939Z,27.55
2018-08-16T17:16:56.445Z,27.21
2018-08-16T17:19:25.415Z,27.85
2018-08-16T17:21:54.162Z,28.36
2018-08-16T17:24:23.149Z,29.20
2018-08-16T17:26:52.000Z,28.89
2018-08-16T17:29:20.794Z,29.87
2018-08-16T17:31:49.667Z,29.44
2018-08-16T17:34:18.342Z,30.80
2018-08-16T17:36:47.111Z,30.53
2018-08-16T17:39:16.025Z,31.83
2018-08-16T17:41:44.887Z,31.74
2018-08-16T17:44:13.806Z,31.94
2018-08-16T17:46:43.060Z,32.40
2018-08-16T17:49:12.219Z,32.97
2018-08-16T17:51:40.817Z,33.15
2018-08-16T17:54:09.506Z,34.04
2018-08-16T17:56:38.222Z,34.33
2018-08-16T17:59:07.086Z,34.49
2018-08-16T18:01:36.695Z,34.45
2018-08-16T18:04:05.659Z,35.18
2018-08-16T18:06:34.427Z,34.73
2018-08-16T18:09:03.867Z,34.49
2018-08-16T18:11:32.743Z,35.38
2018-08-16T18:14:01.853Z,36.32
2018-08-16T18:16:31.155Z,35.55
2018-08-16T18:19:00.194Z,36.51
2018-08-16T18:21:29.339Z,36.66
2018-08-16T18:23:58.712Z,37.01
2018-08-16T18:26:28.166Z,36.91
2018-08-16T18:28:57.473Z,37.32
2018-08-16T18:31:27.179Z,38.06
2018-08-16T18:33:55.947Z,38.15
2018-08-16T18:36:24.904Z,39.87
2018-08-16T18:38:54.199Z,39.00
2018-08-16T18:41:23.304Z,39.49
2018-08-16T18:43:52.828Z,39.27
2018-08-16T18:46:22.816Z,40.08
2018-08-16T18:48:51.842Z,39.89
2018-08-16T18:51:20.683Z,40.24
2018-08-16T18:53:49.802Z,41.07
2018-08-16T18:56:18.864Z,41.98
2018-08-16T18:58:47.794Z,41.22
2018-08-16T19:01:17.122Z,41.49
2018-08-16T19:03:45.810Z,44.09
2018-08-16T19:06:14.543Z,44.89
2018-08-16T19:08:43.554Z,45.54
2018-08-16T19:11:12.648Z,46.60
2018-08-16T19:13:41.526Z,46.80
2018-08-16T19:16:10.362Z,48.21
2018-08-16T19:18:39.099Z,48.17
2018-08-16T19:21:07.788Z,47.92
2018-08-16T19:23:36.724Z,48.31
2018-08-16T19:26:05.556Z,48.59
2018-08-16T19:28:34.500Z,48.42
2018-08-16T19:31:03.679Z,50.71
2018-08-16T19:33:32.414Z,49.88
2018-08-16T19:36:01.187Z,50.49
2018-08-16T19:38:30.375Z,50.01
2018-08-16T19:40:59.454Z,51.35
2018-08-16T19:43:28.179Z,50.73
2018-08-16T19:45:57.218Z,50.78
2018-08-16T19:48:26.395Z,52.08
2018-08-16T19:50:55.249Z,52.27
2018-08-16T19:53:24.252Z,52.15
2018-08-16T19:55:53.086Z,53.07
2018-08-16T19:58:21.832Z,53.35
2018-08-16T20:00:51.373Z,53.39
2018-08-16T20:03:20.035Z,53.17
2018-08-16T20:05:48.834Z,53.91
2018-08-16T20:08:17.861Z,53.97
2018-08-16T20:10:47.045Z,54.00
2018-08-16T20:13:16.125Z,53.19
2018-08-16T20:15:45.343Z,53.99
2018-08-16T20:18:14.549Z,54.52
2018-08-16T20:20:43.280Z,55.85
2018-08-16T20:23:12.477Z,55.40
2018-08-16T20:25:41.476Z,54.85
2018-08-16T20:28:10.421Z,55.32
2018-08-16T20:30:39.739Z,55.85
2018-08-16T20:33:08.466Z,55.34
2018-08-16T20:35:37.231Z,53.82
2018-08-16T20:38:06.348Z,54.54
2018-08-16T20:40:35.196Z,54.59
2018-08-16T20:43:04.286Z,54.99
2018-08-16T20:45:33.501Z,53.97
2018-08-16T20:48:02.401Z,54.02
2018-08-16T20:50:31.357Z,55.03
2018-08-16T20:53:00.590Z,54.72
2018-08-16T20:55:29.457Z,54.46
2018-08-16T20:57:58.503Z,55.16
2018-08-16T21:00:27.792Z,55.30
2018-08-16T21:02:56.498Z,56.29
2018-08-16T21:05:25.259Z,56.67
2018-08-16T21:07:54.048Z,56.02
2018-08-16T21:10:23.069Z,56.64
2018-08-16T21:12:51.793Z,56.96
2018-08-16T21:15:20.725Z,56.98
2018-08-16T21:17:49.786Z,56.33
2018-08-16T21:20:18.911Z,56.77
2018-08-16T21:22:48.412Z,57.74
2018-08-16T21:25:17.336Z,57.42
2018-08-16T21:27:46.195Z,56.92
2018-08-16T21:30:15.605Z,57.94
2018-08-16T21:32:44.284Z,57.85
2018-08-16T21:35:12.986Z,57.85
2018-08-16T21:37:42.003Z,58.49
2018-08-16T21:40:10.845Z,57.88
2018-08-16T21:42:40.017Z,58.10
2018-08-16T21:45:09.304Z,58.10
2018-08-16T21:47:38.423Z,58.02
2018-08-16T21:50:08.299Z,58.28
2018-08-16T21:52:37.590Z,58.50
2018-08-16T21:55:06.400Z,58.65
2018-08-16T21:57:35.233Z,59.16
2018-08-16T22:00:04.113Z,59.39
2018-08-16T22:02:32.957Z,58.74
2018-08-16T22:05:01.794Z,59.06
2018-08-16T22:08:13.238Z,59.38
2018-08-16T22:10:43.757Z,59.69
2018-08-16T22:13:12.935Z,60.72
2018-08-16T22:15:42.021Z,60.03
2018-08-16T22:18:11.127Z,60.21
2018-08-16T22:20:40.376Z,59.67
2018-08-16T22:23:09.534Z,60.06
2018-08-16T22:25:38.820Z,59.60
2018-08-16T22:28:08.445Z,59.43
2018-08-16T22:30:37.696Z,60.02
2018-08-16T22:33:06.562Z,60.26
2018-08-16T22:35:35.922Z,59.90
2018-08-16T22:38:04.659Z,59.40
2018-08-16T22:40:33.520Z,59.09
2018-08-16T22:43:03.025Z,59.46
2018-08-16T22:45:31.859Z,59.55
2018-08-16T22:48:00.793Z,59.56
2018-08-16T22:50:29.901Z,58.89
2018-08-16T22:52:58.765Z,58.51
2018-08-16T22:55:28.056Z,58.54
2018-08-16T22:57:57.467Z,59.34
2018-08-16T23:00:26.764Z,59.88
2018-08-16T23:02:55.555Z,59.35
2018-08-16T23:05:24.646Z,60.11
2018-08-16T23:07:53.528Z,60.28
2018-08-16T23:10:22.871Z,59.57
2018-08-16T23:12:52.451Z,59.50
2018-08-16T23:15:21.531Z,60.46
2018-08-16T23:17:50.622Z,60.97
2018-08-16T23:20:20.063Z,61.61
2018-08-16T23:22:49.350Z,61.77
2018-08-16T23:25:18.551Z,61.90
2018-08-16T23:27:48.080Z,61.87
2018-08-16T23:30:17.562Z,62.32
2018-08-16T23:32:46.370Z,61.40
2018-08-16T23:35:15.515Z,61.19
2018-08-16T23:37:44.367Z,62.10
2018-08-16T23:40:14.387Z,62.36
2018-08-16T23:42:43.992Z,62.30
2018-08-16T23:45:13.027Z,63.03
2018-08-16T23:47:42.416Z,62.70
2018-08-16T23:50:12.242Z,62.96
2018-08-16T23:52:41.268Z,62.79
2018-08-16T23:55:10.475Z,63.00
2018-08-16T23:57:39.567Z,62.99
